createdAt,value
2018-04-01T00:05:54.000Z,47.902
2018-04-01T00:15:54.000Z,47.854
2018-04-01T00:25:57.000Z,47.903
2018-04-01T00:35:54.000Z,47.909
2018-04-01T00:45:54.000Z,47.925
2018-04-01T00:55:54.000Z,48.007
2018-04-01T01:05:54.000Z,47.937
2018-04-01T01:15:54.000Z,47.902
2018-04-01T01:25:54.000Z,47.908
2018-04-01T01:35:54.000Z,47.925
2018-04-01T01:45:54.000Z,47.931
2018-04-01T01:55:54.000Z,47.927
2018-04-01T02:05:54.000Z,47.87
2018-04-01T02:15:54.000Z,47.909
2018-04-01T02:25:54.000Z,47.895
2018-04-01T02:35:54.000Z,47.805
2018-04-01T02:45:54.000Z,47.877
2018-04-01T02:55:54.000Z,47.951
2018-04-01T03:05:54.000Z,47.902
2018-04-01T03:15:54.000Z,47.856
2018-04-01T03:25:54.000Z,47.481
2018-04-01T03:35:54.000Z,47.543
2018-04-01T03:45:54.000Z,47.393
2018-04-01T03:55:54.000Z,47.142
2018-04-01T04:05:54.000Z,46.816
2018-04-01T04:15:54.000Z,46.509
2018-04-01T04:25:54.000Z,46.21
2018-04-01T04:35:54.000Z,45.915
2018-04-01T04:45:54.000Z,45.648
2018-04-01T04:55:54.000Z,45.384
2018-04-01T05:05:54.000Z,45
2018-04-01T05:15:54.000Z,44.832
2018-04-01T05:25:54.000Z,44.524
2018-04-01T05:35:54.000Z,44.375
2018-04-01T05:45:54.000Z,44.087
2018-04-01T05:55:54.000Z,43.833
2018-04-01T06:05:54.000Z,43.622
2018-04-01T06:15:54.000Z,43.516
2018-04-01T06:25:54.000Z,43.348
2018-04-01T06:35:54.000Z,43.264
2018-04-01T06:45:54.000Z,42.806
2018-04-01T06:55:54.000Z,42.732
2018-04-01T07:05:54.000Z,42.444
2018-04-01T07:15:54.000Z,42.188
2018-04-01T07:25:54.000Z,41.974
2018-04-01T07:35:54.000Z,41.815
2018-04-01T07:45:54.000Z,40.692
2018-04-01T07:55:54.000Z,40.166
2018-04-01T08:05:55.000Z,39.986
2018-04-01T08:15:55.000Z,39.666
2018-04-01T08:25:55.000Z,39.53
2018-04-01T08:35:55.000Z,39.265
2018-04-01T08:45:55.000Z,39.12
2018-04-01T08:55:55.000Z,38.93
2018-04-01T09:05:55.000Z,38.504
2018-04-01T09:15:55.000Z,38.291
2018-04-01T09:25:55.000Z,38.101
2018-04-01T09:35:55.000Z,37.738
2018-04-01T09:45:55.000Z,37.903
2018-04-01T09:55:55.000Z,37.625
2018-04-01T10:05:55.000Z,37.574
2018-04-01T10:15:55.000Z,37.839
2018-04-01T10:25:55.000Z,37.622
2018-04-01T10:35:55.000Z,37.131
2018-04-01T10:45:55.000Z,42.311
2018-04-01T10:55:56.000Z,42.097
2018-04-01T11:05:55.000Z,42.018
2018-04-01T11:15:55.000Z,41.02
2018-04-01T11:25:55.000Z,40.137
2018-04-01T11:35:55.000Z,39.398
2018-04-01T11:45:55.000Z,38.985
2018-04-01T11:55:55.000Z,38.551
2018-04-01T12:05:55.000Z,38.259
2018-04-01T12:15:55.000Z,38.087
2018-04-01T12:25:55.000Z,37.763
2018-04-01T12:35:55.000Z,37.555
2018-04-01T12:45:55.000Z,36.901
2018-04-01T12:55:55.000Z,37.084
2018-04-01T13:05:55.000Z,36.803
2018-04-01T13:15:55.000Z,36.139
2018-04-01T13:25:55.000Z,36.56
2018-04-01T13:35:55.000Z,36.532
2018-04-01T13:45:55.000Z,36.474
2018-04-01T13:55:55.000Z,36.23
2018-04-01T14:05:55.000Z,36.647
2018-04-01T14:15:55.000Z,36.577
2018-04-01T14:25:55.000Z,36.32
2018-04-01T14:35:55.000Z,36.237
2018-04-01T14:45:55.000Z,36.044
2018-04-01T14:55:55.000Z,35.83
2018-04-01T15:05:56.000Z,35.251
2018-04-01T15:15:55.000Z,36.788
2018-04-01T15:25:55.000Z,36.813
2018-04-01T15:35:55.000Z,36.06
2018-04-01T15:45:55.000Z,35.781
2018-04-01T15:55:55.000Z,35.88
2018-04-01T16:05:55.000Z,35.556
2018-04-01T16:15:55.000Z,36.021
2018-04-01T16:25:56.000Z,36.033
2018-04-01T16:35:56.000Z,36.532
2018-04-01T16:45:56.000Z,36.205
2018-04-01T16:55:56.000Z,37.368
2018-04-01T17:05:56.000Z,39.044
2018-04-01T17:15:57.000Z,39.537
2018-04-01T17:35:57.000Z,41.192
2018-04-01T17:45:56.000Z,41.403
2018-04-01T17:55:56.000Z,41.75
2018-04-01T18:05:56.000Z,42.769
2018-04-01T18:15:56.000Z,44.421
2018-04-01T18:25:56.000Z,45.292
2018-04-01T18:35:56.000Z,43.813
2018-04-01T18:45:56.000Z,43.875
2018-04-01T18:55:56.000Z,44.302
2018-04-01T19:05:56.000Z,43.196
2018-04-01T19:15:56.000Z,40.656
2018-04-01T19:25:57.000Z,40.439
2018-04-01T19:35:56.000Z,40.018
2018-04-01T19:45:56.000Z,40.319
2018-04-01T19:55:56.000Z,40.214
2018-04-01T20:05:56.000Z,39.447
2018-04-01T20:15:56.000Z,39.522
2018-04-01T20:25:56.000Z,39.208
2018-04-01T20:35:56.000Z,39.51
2018-04-01T20:45:56.000Z,39.405
2018-04-01T20:55:56.000Z,39.395
2018-04-01T21:05:56.000Z,39.047
2018-04-01T21:15:56.000Z,39.35
2018-04-01T21:25:56.000Z,39.805
2018-04-01T21:35:56.000Z,39.702
2018-04-01T21:45:56.000Z,39.71
2018-04-01T21:55:56.000Z,39.77
2018-04-01T22:05:56.000Z,40.169
2018-04-01T22:15:56.000Z,40.68
2018-04-01T22:25:56.000Z,40.937
2018-04-01T22:35:56.000Z,41.04
2018-04-01T22:45:56.000Z,41.705
2018-04-01T22:55:56.000Z,42.262
2018-04-01T23:05:56.000Z,42.632
2018-04-01T23:15:56.000Z,42.64
2018-04-01T23:25:56.000Z,42.633
2018-04-01T23:35:56.000Z,43.104
2018-04-01T23:45:56.000Z,43.09
2018-04-01T23:55:56.000Z,43.083
